sensor_id;sensor_type;location;lat;lon;timestamp;P1;durP1;ratioP1;P2;durP2;ratioP2
41755;SDS011;27435;48.480;9.258;2022-08-19T00:01:32;64.93;;;37.75;;
41755;SDS011;27435;48.480;9.258;2022-08-19T00:03:59;66.18;;;37.95;;
41755;SDS011;27435;48.480;9.258;2022-08-19T00:06:29;67.70;;;40.63;;
41755;SDS011;27435;48.480;9.258;2022-08-19T00:08:55;71.97;;;40.47;;
41755;SDS011;27435;48.480;9.258;2022-08-19T00:11:22;68.80;;;38.95;;
41755;SDS011;27435;48.480;9.258;2022-08-19T00:13:48;72.43;;;40.88;;
41755;SDS011;27435;48.480;9.258;2022-08-19T00:16:15;76.85;;;41.00;;
41755;SDS011;27435;48.480;9.258;2022-08-19T00:18:44;69.18;;;39.85;;
41755;SDS011;27435;48.480;9.258;2022-08-19T00:21:10;75.25;;;40.00;;
41755;SDS011;27435;48.480;9.258;2022-08-19T00:23:36;68.00;;;38.05;;
41755;SDS011;27435;48.480;9.258;2022-08-19T00:26:04;65.72;;;38.28;;
41755;SDS011;27435;48.480;9.258;2022-08-19T00:28:31;71.45;;;38.90;;
41755;SDS011;27435;48.480;9.258;2022-08-19T00:30:56;67.15;;;37.95;;
41755;SDS011;27435;48.480;9.258;2022-08-19T00:33:22;68.10;;;39.08;;
41755;SDS011;27435;48.480;9.258;2022-08-19T00:35:47;69.40;;;38.40;;
41755;SDS011;27435;48.480;9.258;2022-08-19T00:38:13;69.00;;;39.40;;
41755;SDS011;27435;48.480;9.258;2022-08-19T00:40:39;63.67;;;38.47;;
41755;SDS011;27435;48.480;9.258;2022-08-19T00:43:08;62.67;;;36.70;;
41755;SDS011;27435;48.480;9.258;2022-08-19T00:45:35;56.35;;;34.95;;
41755;SDS011;27435;48.480;9.258;2022-08-19T00:48:01;62.00;;;35.38;;
41755;SDS011;27435;48.480;9.258;2022-08-19T00:50:29;65.13;;;35.72;;
41755;SDS011;27435;48.480;9.258;2022-08-19T00:52:56;67.68;;;36.45;;
41755;SDS011;27435;48.480;9.258;2022-08-19T00:55:24;66.68;;;36.97;;
41755;SDS011;27435;48.480;9.258;2022-08-19T00:57:58;70.00;;;37.42;;
41755;SDS011;27435;48.480;9.258;2022-08-19T01:00:36;67.60;;;36.90;;
41755;SDS011;27435;48.480;9.258;2022-08-19T01:03:06;71.72;;;38.97;;
41755;SDS011;27435;48.480;9.258;2022-08-19T01:05:34;79.07;;;39.95;;
41755;SDS011;27435;48.480;9.258;2022-08-19T01:08:02;80.85;;;40.28;;
41755;SDS011;27435;48.480;9.258;2022-08-19T01:10:30;79.30;;;40.28;;
41755;SDS011;27435;48.480;9.258;2022-08-19T01:12:59;80.85;;;41.22;;
41755;SDS011;27435;48.480;9.258;2022-08-19T01:15:29;84.65;;;42.28;;
41755;SDS011;27435;48.480;9.258;2022-08-19T01:17:58;78.68;;;41.45;;
41755;SDS011;27435;48.480;9.258;2022-08-19T01:20:26;78.55;;;40.10;;
41755;SDS011;27435;48.480;9.258;2022-08-19T01:22:53;78.97;;;41.08;;
41755;SDS011;27435;48.480;9.258;2022-08-19T01:25:42;73.95;;;39.70;;
41755;SDS011;27435;48.480;9.258;2022-08-19T01:28:15;71.22;;;38.97;;
41755;SDS011;27435;48.480;9.258;2022-08-19T01:30:45;68.10;;;36.97;;
41755;SDS011;27435;48.480;9.258;2022-08-19T01:33:11;65.50;;;37.80;;
41755;SDS011;27435;48.480;9.258;2022-08-19T01:35:37;66.13;;;37.20;;
41755;SDS011;27435;48.480;9.258;2022-08-19T01:38:05;62.17;;;36.20;;
41755;SDS011;27435;48.480;9.258;2022-08-19T01:40:33;73.20;;;38.13;;
41755;SDS011;27435;48.480;9.258;2022-08-19T01:43:01;73.80;;;39.80;;
41755;SDS011;27435;48.480;9.258;2022-08-19T01:45:28;74.65;;;37.90;;
41755;SDS011;27435;48.480;9.258;2022-08-19T01:47:56;78.75;;;39.28;;
41755;SDS011;27435;48.480;9.258;2022-08-19T01:50:23;74.45;;;40.35;;
41755;SDS011;27435;48.480;9.258;2022-08-19T01:52:49;76.47;;;39.13;;
41755;SDS011;27435;48.480;9.258;2022-08-19T01:55:16;77.15;;;39.72;;
41755;SDS011;27435;48.480;9.258;2022-08-19T01:57:46;76.03;;;39.67;;
41755;SDS011;27435;48.480;9.258;2022-08-19T02:00:17;84.55;;;39.58;;
41755;SDS011;27435;48.480;9.258;2022-08-19T02:02:44;72.32;;;38.80;;
41755;SDS011;27435;48.480;9.258;2022-08-19T02:05:10;77.45;;;38.72;;
41755;SDS011;27435;48.480;9.258;2022-08-19T02:07:37;80.40;;;39.70;;
41755;SDS011;27435;48.480;9.258;2022-08-19T02:10:05;80.35;;;38.50;;
41755;SDS011;27435;48.480;9.258;2022-08-19T02:12:33;79.68;;;38.65;;
41755;SDS011;27435;48.480;9.258;2022-08-19T02:14:59;80.38;;;39.67;;
41755;SDS011;27435;48.480;9.258;2022-08-19T02:17:26;81.55;;;40.00;;
41755;SDS011;27435;48.480;9.258;2022-08-19T02:19:53;84.50;;;41.00;;
41755;SDS011;27435;48.480;9.258;2022-08-19T02:22:20;85.50;;;41.40;;
41755;SDS011;27435;48.480;9.258;2022-08-19T02:24:46;85.25;;;40.67;;
41755;SDS011;27435;48.480;9.258;2022-08-19T02:27:13;77.63;;;39.47;;
41755;SDS011;27435;48.480;9.258;2022-08-19T02:29:39;81.60;;;39.88;;
41755;SDS011;27435;48.480;9.258;2022-08-19T02:32:04;76.88;;;37.80;;
41755;SDS011;27435;48.480;9.258;2022-08-19T02:34:30;75.95;;;38.45;;
41755;SDS011;27435;48.480;9.258;2022-08-19T02:36:56;78.65;;;38.17;;
41755;SDS011;27435;48.480;9.258;2022-08-19T02:39:21;68.57;;;35.95;;
41755;SDS011;27435;48.480;9.258;2022-08-19T02:41:47;68.07;;;37.13;;
41755;SDS011;27435;48.480;9.258;2022-08-19T02:44:14;69.50;;;36.17;;
41755;SDS011;27435;48.480;9.258;2022-08-19T02:46:40;75.72;;;37.67;;
41755;SDS011;27435;48.480;9.258;2022-08-19T02:49:06;72.93;;;36.28;;
41755;SDS011;27435;48.480;9.258;2022-08-19T02:51:34;72.20;;;36.20;;
41755;SDS011;27435;48.480;9.258;2022-08-19T02:54:02;69.45;;;36.15;;
41755;SDS011;27435;48.480;9.258;2022-08-19T02:56:29;71.10;;;34.33;;
41755;SDS011;27435;48.480;9.258;2022-08-19T02:58:56;73.65;;;35.88;;
41755;SDS011;27435;48.480;9.258;2022-08-19T03:01:23;81.05;;;38.53;;
41755;SDS011;27435;48.480;9.258;2022-08-19T03:03:52;80.43;;;39.30;;
41755;SDS011;27435;48.480;9.258;2022-08-19T03:06:19;72.57;;;37.50;;
41755;SDS011;27435;48.480;9.258;2022-08-19T03:08:46;76.78;;;36.65;;
41755;SDS011;27435;48.480;9.258;2022-08-19T03:11:15;75.18;;;35.50;;
41755;SDS011;27435;48.480;9.258;2022-08-19T03:13:43;77.00;;;36.65;;
41755;SDS011;27435;48.480;9.258;2022-08-19T03:16:08;74.72;;;37.00;;
41755;SDS011;27435;48.480;9.258;2022-08-19T03:18:35;66.00;;;35.30;;
41755;SDS011;27435;48.480;9.258;2022-08-19T03:21:02;73.55;;;35.92;;
41755;SDS011;27435;48.480;9.258;2022-08-19T03:23:27;66.35;;;33.85;;
41755;SDS011;27435;48.480;9.258;2022-08-19T03:25:53;71.50;;;35.47;;
41755;SDS011;27435;48.480;9.258;2022-08-19T03:28:19;77.10;;;36.58;;
41755;SDS011;27435;48.480;9.258;2022-08-19T03:30:59;69.80;;;35.33;;
41755;SDS011;27435;48.480;9.258;2022-08-19T03:33:31;81.32;;;36.15;;
41755;SDS011;27435;48.480;9.258;2022-08-19T03:36:11;75.20;;;35.65;;
41755;SDS011;27435;48.480;9.258;2022-08-19T03:38:40;75.20;;;35.03;;
41755;SDS011;27435;48.480;9.258;2022-08-19T03:41:13;73.40;;;35.65;;
41755;SDS011;27435;48.480;9.258;2022-08-19T03:43:49;76.45;;;35.60;;
41755;SDS011;27435;48.480;9.258;2022-08-19T03:46:15;72.65;;;35.90;;
41755;SDS011;27435;48.480;9.258;2022-08-19T03:48:45;79.13;;;37.50;;
41755;SDS011;27435;48.480;9.258;2022-08-19T03:51:18;74.13;;;37.00;;
41755;SDS011;27435;48.480;9.258;2022-08-19T03:53:50;75.85;;;34.75;;
41755;SDS011;27435;48.480;9.258;2022-08-19T03:56:17;74.70;;;36.50;;
41755;SDS011;27435;48.480;9.258;2022-08-19T03:58:43;72.32;;;35.05;;
41755;SDS011;27435;48.480;9.258;2022-08-19T04:01:15;77.43;;;36.05;;
41755;SDS011;27435;48.480;9.258;2022-08-19T04:03:43;76.82;;;37.33;;
41755;SDS011;27435;48.480;9.258;2022-08-19T04:08:37;76.32;;;35.20;;
41755;SDS011;27435;48.480;9.258;2022-08-19T04:11:08;71.60;;;34.22;;
41755;SDS011;27435;48.480;9.258;2022-08-19T04:13:35;74.88;;;36.05;;
41755;SDS011;27435;48.480;9.258;2022-08-19T04:16:01;76.57;;;35.03;;
41755;SDS011;27435;48.480;9.258;2022-08-19T04:18:26;75.45;;;35.22;;
41755;SDS011;27435;48.480;9.258;2022-08-19T04:20:54;75.63;;;35.22;;
41755;SDS011;27435;48.480;9.258;2022-08-19T04:23:20;78.25;;;35.15;;
41755;SDS011;27435;48.480;9.258;2022-08-19T04:25:45;75.80;;;36.28;;
41755;SDS011;27435;48.480;9.258;2022-08-19T04:28:12;80.35;;;35.60;;
41755;SDS011;27435;48.480;9.258;2022-08-19T04:30:42;77.03;;;35.80;;
41755;SDS011;27435;48.480;9.258;2022-08-19T04:33:10;70.80;;;35.53;;
41755;SDS011;27435;48.480;9.258;2022-08-19T04:35:40;69.90;;;34.92;;
41755;SDS011;27435;48.480;9.258;2022-08-19T04:38:08;70.35;;;35.17;;
41755;SDS011;27435;48.480;9.258;2022-08-19T04:40:39;73.25;;;34.95;;
41755;SDS011;27435;48.480;9.258;2022-08-19T04:43:27;76.35;;;36.80;;
41755;SDS011;27435;48.480;9.258;2022-08-19T04:45:53;70.78;;;35.63;;
41755;SDS011;27435;48.480;9.258;2022-08-19T04:48:19;71.15;;;35.22;;
41755;SDS011;27435;48.480;9.258;2022-08-19T04:50:50;58.65;;;33.00;;
41755;SDS011;27435;48.480;9.258;2022-08-19T04:53:21;68.95;;;33.08;;
41755;SDS011;27435;48.480;9.258;2022-08-19T04:55:47;63.70;;;32.67;;
41755;SDS011;27435;48.480;9.258;2022-08-19T04:58:13;56.55;;;30.02;;
41755;SDS011;27435;48.480;9.258;2022-08-19T05:00:39;57.90;;;30.95;;
41755;SDS011;27435;48.480;9.258;2022-08-19T05:03:05;61.70;;;32.08;;
41755;SDS011;27435;48.480;9.258;2022-08-19T05:05:30;61.58;;;31.15;;
41755;SDS011;27435;48.480;9.258;2022-08-19T05:07:57;57.15;;;31.25;;
41755;SDS011;27435;48.480;9.258;2022-08-19T05:10:23;52.78;;;29.95;;
41755;SDS011;27435;48.480;9.258;2022-08-19T05:12:49;61.03;;;30.10;;
41755;SDS011;27435;48.480;9.258;2022-08-19T05:15:15;52.17;;;29.02;;
41755;SDS011;27435;48.480;9.258;2022-08-19T05:17:41;49.45;;;29.35;;
41755;SDS011;27435;48.480;9.258;2022-08-19T05:20:27;48.00;;;28.48;;
41755;SDS011;27435;48.480;9.258;2022-08-19T05:23:21;49.03;;;27.38;;
41755;SDS011;27435;48.480;9.258;2022-08-19T05:25:47;46.90;;;28.30;;
41755;SDS011;27435;48.480;9.258;2022-08-19T05:28:14;46.70;;;25.35;;
41755;SDS011;27435;48.480;9.258;2022-08-19T05:30:40;57.13;;;28.50;;
41755;SDS011;27435;48.480;9.258;2022-08-19T05:33:06;49.65;;;27.55;;
41755;SDS011;27435;48.480;9.258;2022-08-19T05:35:34;49.78;;;27.15;;
41755;SDS011;27435;48.480;9.258;2022-08-19T05:38:02;45.28;;;27.33;;
41755;SDS011;27435;48.480;9.258;2022-08-19T05:40:28;49.50;;;29.00;;
41755;SDS011;27435;48.480;9.258;2022-08-19T05:42:54;46.13;;;27.13;;
41755;SDS011;27435;48.480;9.258;2022-08-19T05:45:20;48.47;;;27.17;;
41755;SDS011;27435;48.480;9.258;2022-08-19T05:47:46;45.85;;;26.42;;
41755;SDS011;27435;48.480;9.258;2022-08-19T05:50:12;45.53;;;27.17;;
41755;SDS011;27435;48.480;9.258;2022-08-19T05:52:38;47.05;;;27.40;;
41755;SDS011;27435;48.480;9.258;2022-08-19T05:55:04;45.83;;;27.02;;
41755;SDS011;27435;48.480;9.258;2022-08-19T05:57:31;49.50;;;27.77;;
41755;SDS011;27435;48.480;9.258;2022-08-19T05:59:57;43.00;;;26.45;;
41755;SDS011;27435;48.480;9.258;2022-08-19T06:02:25;46.63;;;28.52;;
41755;SDS011;27435;48.480;9.258;2022-08-19T06:04:52;42.47;;;27.85;;
41755;SDS011;27435;48.480;9.258;2022-08-19T06:07:17;45.25;;;27.25;;
41755;SDS011;27435;48.480;9.258;2022-08-19T06:09:44;46.15;;;26.92;;
41755;SDS011;27435;48.480;9.258;2022-08-19T06:12:11;49.47;;;28.30;;
41755;SDS011;27435;48.480;9.258;2022-08-19T06:14:36;51.22;;;29.45;;
41755;SDS011;27435;48.480;9.258;2022-08-19T06:17:02;49.85;;;28.75;;
41755;SDS011;27435;48.480;9.258;2022-08-19T06:19:29;53.35;;;29.00;;
41755;SDS011;27435;48.480;9.258;2022-08-19T06:21:55;50.47;;;28.17;;
41755;SDS011;27435;48.480;9.258;2022-08-19T06:24:24;52.97;;;29.98;;
41755;SDS011;27435;48.480;9.258;2022-08-19T06:26:52;50.70;;;28.65;;
41755;SDS011;27435;48.480;9.258;2022-08-19T06:29:20;51.38;;;29.13;;
41755;SDS011;27435;48.480;9.258;2022-08-19T06:31:48;51.97;;;29.95;;
41755;SDS011;27435;48.480;9.258;2022-08-19T06:34:16;55.05;;;30.25;;
41755;SDS011;27435;48.480;9.258;2022-08-19T06:36:44;48.85;;;28.52;;
41755;SDS011;27435;48.480;9.258;2022-08-19T06:39:13;43.25;;;27.17;;
41755;SDS011;27435;48.480;9.258;2022-08-19T06:41:42;50.92;;;30.25;;
41755;SDS011;27435;48.480;9.258;2022-08-19T06:44:09;46.90;;;28.52;;
41755;SDS011;27435;48.480;9.258;2022-08-19T06:46:36;49.88;;;30.00;;
41755;SDS011;27435;48.480;9.258;2022-08-19T06:49:03;48.05;;;29.17;;
41755;SDS011;27435;48.480;9.258;2022-08-19T06:51:29;54.90;;;30.23;;
41755;SDS011;27435;48.480;9.258;2022-08-19T06:53:56;51.80;;;30.52;;
41755;SDS011;27435;48.480;9.258;2022-08-19T06:56:24;55.00;;;32.28;;
41755;SDS011;27435;48.480;9.258;2022-08-19T06:58:58;60.08;;;32.13;;
41755;SDS011;27435;48.480;9.258;2022-08-19T07:01:37;59.42;;;33.45;;
41755;SDS011;27435;48.480;9.258;2022-08-19T07:04:15;60.85;;;32.90;;
41755;SDS011;27435;48.480;9.258;2022-08-19T07:06:43;58.67;;;33.25;;
41755;SDS011;27435;48.480;9.258;2022-08-19T07:09:10;59.88;;;32.97;;
41755;SDS011;27435;48.480;9.258;2022-08-19T07:11:43;61.88;;;34.50;;
41755;SDS011;27435;48.480;9.258;2022-08-19T07:14:13;59.97;;;34.60;;
41755;SDS011;27435;48.480;9.258;2022-08-19T07:16:41;60.50;;;34.25;;
41755;SDS011;27435;48.480;9.258;2022-08-19T07:19:06;61.78;;;34.65;;
41755;SDS011;27435;48.480;9.258;2022-08-19T07:21:32;60.42;;;34.20;;
41755;SDS011;27435;48.480;9.258;2022-08-19T07:23:58;62.45;;;34.03;;
41755;SDS011;27435;48.480;9.258;2022-08-19T07:26:26;60.90;;;34.08;;
41755;SDS011;27435;48.480;9.258;2022-08-19T07:28:53;54.53;;;33.03;;
41755;SDS011;27435;48.480;9.258;2022-08-19T07:31:21;62.25;;;32.90;;
41755;SDS011;27435;48.480;9.258;2022-08-19T07:33:49;55.30;;;33.70;;
41755;SDS011;27435;48.480;9.258;2022-08-19T07:36:18;65.90;;;35.50;;
41755;SDS011;27435;48.480;9.258;2022-08-19T07:38:47;56.72;;;33.35;;
41755;SDS011;27435;48.480;9.258;2022-08-19T07:41:15;60.38;;;34.70;;
41755;SDS011;27435;48.480;9.258;2022-08-19T07:43:44;66.68;;;35.20;;
41755;SDS011;27435;48.480;9.258;2022-08-19T07:46:10;66.68;;;36.65;;
41755;SDS011;27435;48.480;9.258;2022-08-19T07:48:38;64.82;;;34.63;;
41755;SDS011;27435;48.480;9.258;2022-08-19T07:51:07;68.60;;;38.50;;
41755;SDS011;27435;48.480;9.258;2022-08-19T07:53:34;60.72;;;34.50;;
41755;SDS011;27435;48.480;9.258;2022-08-19T07:56:01;64.45;;;36.90;;
41755;SDS011;27435;48.480;9.258;2022-08-19T07:58:30;66.97;;;36.47;;
41755;SDS011;27435;48.480;9.258;2022-08-19T08:00:58;65.85;;;36.25;;
41755;SDS011;27435;48.480;9.258;2022-08-19T08:03:24;66.65;;;36.83;;
41755;SDS011;27435;48.480;9.258;2022-08-19T08:06:21;67.50;;;37.78;;
41755;SDS011;27435;48.480;9.258;2022-08-19T08:09:05;79.22;;;38.95;;
41755;SDS011;27435;48.480;9.258;2022-08-19T08:11:54;72.50;;;39.45;;
41755;SDS011;27435;48.480;9.258;2022-08-19T08:14:26;73.35;;;38.58;;
41755;SDS011;27435;48.480;9.258;2022-08-19T08:16:54;77.03;;;38.50;;
41755;SDS011;27435;48.480;9.258;2022-08-19T08:19:20;74.97;;;39.25;;
41755;SDS011;27435;48.480;9.258;2022-08-19T08:21:48;78.95;;;36.78;;
41755;SDS011;27435;48.480;9.258;2022-08-19T08:24:14;69.20;;;38.97;;
41755;SDS011;27435;48.480;9.258;2022-08-19T08:26:40;68.63;;;37.95;;
41755;SDS011;27435;48.480;9.258;2022-08-19T08:29:08;73.80;;;39.70;;
41755;SDS011;27435;48.480;9.258;2022-08-19T08:31:39;69.05;;;37.67;;
41755;SDS011;27435;48.480;9.258;2022-08-19T08:34:05;71.40;;;37.65;;
41755;SDS011;27435;48.480;9.258;2022-08-19T08:36:32;78.43;;;40.17;;
41755;SDS011;27435;48.480;9.258;2022-08-19T08:38:58;76.97;;;39.83;;
41755;SDS011;27435;48.480;9.258;2022-08-19T08:41:34;73.75;;;38.95;;
41755;SDS011;27435;48.480;9.258;2022-08-19T08:44:16;80.78;;;39.63;;
41755;SDS011;27435;48.480;9.258;2022-08-19T08:46:50;80.50;;;40.70;;
41755;SDS011;27435;48.480;9.258;2022-08-19T08:52:09;84.03;;;42.67;;
41755;SDS011;27435;48.480;9.258;2022-08-19T08:54:41;83.05;;;40.55;;
41755;SDS011;27435;48.480;9.258;2022-08-19T09:00:00;81.53;;;40.80;;
41755;SDS011;27435;48.480;9.258;2022-08-19T09:02:30;89.50;;;43.58;;
41755;SDS011;27435;48.480;9.258;2022-08-19T09:04:55;88.40;;;43.63;;
41755;SDS011;27435;48.480;9.258;2022-08-19T09:10:42;80.53;;;40.75;;
41755;SDS011;27435;48.480;9.258;2022-08-19T09:16:18;80.07;;;39.97;;
41755;SDS011;27435;48.480;9.258;2022-08-19T09:18:47;80.93;;;40.28;;
41755;SDS011;27435;48.480;9.258;2022-08-19T09:21:17;78.90;;;40.50;;
41755;SDS011;27435;48.480;9.258;2022-08-19T09:23:43;73.10;;;39.25;;
41755;SDS011;27435;48.480;9.258;2022-08-19T09:26:10;69.40;;;38.28;;
41755;SDS011;27435;48.480;9.258;2022-08-19T09:28:39;75.53;;;38.35;;
41755;SDS011;27435;48.480;9.258;2022-08-19T09:31:11;72.50;;;37.38;;
41755;SDS011;27435;48.480;9.258;2022-08-19T09:33:38;76.18;;;39.85;;
41755;SDS011;27435;48.480;9.258;2022-08-19T09:36:05;74.35;;;37.55;;
41755;SDS011;27435;48.480;9.258;2022-08-19T09:38:33;78.63;;;40.78;;
41755;SDS011;27435;48.480;9.258;2022-08-19T09:41:03;78.28;;;38.90;;
41755;SDS011;27435;48.480;9.258;2022-08-19T09:43:30;73.35;;;38.35;;
41755;SDS011;27435;48.480;9.258;2022-08-19T09:45:56;76.85;;;39.70;;
41755;SDS011;27435;48.480;9.258;2022-08-19T09:48:22;72.57;;;37.90;;
41755;SDS011;27435;48.480;9.258;2022-08-19T09:50:48;68.50;;;37.45;;
41755;SDS011;27435;48.480;9.258;2022-08-19T09:53:16;70.90;;;38.95;;
41755;SDS011;27435;48.480;9.258;2022-08-19T09:55:44;69.43;;;35.92;;
41755;SDS011;27435;48.480;9.258;2022-08-19T09:58:10;68.38;;;37.78;;
41755;SDS011;27435;48.480;9.258;2022-08-19T10:00:37;64.38;;;37.20;;
41755;SDS011;27435;48.480;9.258;2022-08-19T10:03:03;68.28;;;36.85;;
41755;SDS011;27435;48.480;9.258;2022-08-19T10:05:29;60.33;;;35.13;;
41755;SDS011;27435;48.480;9.258;2022-08-19T10:08:13;60.08;;;35.42;;
41755;SDS011;27435;48.480;9.258;2022-08-19T10:10:43;67.88;;;34.78;;
41755;SDS011;27435;48.480;9.258;2022-08-19T10:13:09;57.67;;;35.65;;
41755;SDS011;27435;48.480;9.258;2022-08-19T10:15:35;59.13;;;33.17;;
41755;SDS011;27435;48.480;9.258;2022-08-19T10:18:04;56.88;;;32.33;;
41755;SDS011;27435;48.480;9.258;2022-08-19T10:20:30;58.42;;;33.67;;
41755;SDS011;27435;48.480;9.258;2022-08-19T10:22:56;57.10;;;32.33;;
41755;SDS011;27435;48.480;9.258;2022-08-19T10:25:24;61.90;;;33.92;;
41755;SDS011;27435;48.480;9.258;2022-08-19T10:27:51;60.42;;;33.92;;
41755;SDS011;27435;48.480;9.258;2022-08-19T10:30:17;62.85;;;35.30;;
41755;SDS011;27435;48.480;9.258;2022-08-19T10:32:43;59.65;;;34.67;;
41755;SDS011;27435;48.480;9.258;2022-08-19T10:35:11;68.60;;;34.88;;
41755;SDS011;27435;48.480;9.258;2022-08-19T10:37:38;62.50;;;35.00;;
41755;SDS011;27435;48.480;9.258;2022-08-19T10:40:05;59.20;;;34.53;;
41755;SDS011;27435;48.480;9.258;2022-08-19T10:42:32;62.00;;;35.08;;
41755;SDS011;27435;48.480;9.258;2022-08-19T10:45:02;63.75;;;35.25;;
41755;SDS011;27435;48.480;9.258;2022-08-19T10:47:31;68.20;;;35.33;;
41755;SDS011;27435;48.480;9.258;2022-08-19T10:49:58;65.75;;;35.75;;
41755;SDS011;27435;48.480;9.258;2022-08-19T10:52:43;66.72;;;36.28;;
41755;SDS011;27435;48.480;9.258;2022-08-19T10:55:11;61.85;;;35.25;;
41755;SDS011;27435;48.480;9.258;2022-08-19T10:57:55;65.88;;;35.95;;
41755;SDS011;27435;48.480;9.258;2022-08-19T11:00:22;69.10;;;36.08;;
41755;SDS011;27435;48.480;9.258;2022-08-19T11:02:49;71.05;;;36.88;;
41755;SDS011;27435;48.480;9.258;2022-08-19T11:05:15;66.70;;;35.95;;
41755;SDS011;27435;48.480;9.258;2022-08-19T11:07:42;68.93;;;37.65;;
41755;SDS011;27435;48.480;9.258;2022-08-19T11:10:10;73.00;;;37.00;;
41755;SDS011;27435;48.480;9.258;2022-08-19T11:12:38;72.80;;;37.78;;
41755;SDS011;27435;48.480;9.258;2022-08-19T11:15:08;65.18;;;35.20;;
41755;SDS011;27435;48.480;9.258;2022-08-19T11:17:36;72.47;;;37.80;;
41755;SDS011;27435;48.480;9.258;2022-08-19T11:20:07;70.55;;;36.90;;
41755;SDS011;27435;48.480;9.258;2022-08-19T11:22:34;68.07;;;36.38;;
41755;SDS011;27435;48.480;9.258;2022-08-19T11:24:59;66.85;;;35.95;;
41755;SDS011;27435;48.480;9.258;2022-08-19T11:27:25;62.92;;;35.38;;
41755;SDS011;27435;48.480;9.258;2022-08-19T11:29:51;62.58;;;34.50;;
41755;SDS011;27435;48.480;9.258;2022-08-19T11:32:17;68.07;;;36.00;;
41755;SDS011;27435;48.480;9.258;2022-08-19T11:34:43;63.35;;;35.80;;
41755;SDS011;27435;48.480;9.258;2022-08-19T11:37:09;60.25;;;35.78;;
41755;SDS011;27435;48.480;9.258;2022-08-19T11:39:34;67.22;;;35.45;;
41755;SDS011;27435;48.480;9.258;2022-08-19T11:42:02;71.10;;;36.35;;
41755;SDS011;27435;48.480;9.258;2022-08-19T11:44:48;62.85;;;35.60;;
41755;SDS011;27435;48.480;9.258;2022-08-19T11:47:14;63.90;;;35.25;;
41755;SDS011;27435;48.480;9.258;2022-08-19T11:49:40;64.95;;;36.25;;
41755;SDS011;27435;48.480;9.258;2022-08-19T11:52:07;65.38;;;35.53;;
41755;SDS011;27435;48.480;9.258;2022-08-19T11:54:33;63.05;;;36.47;;
41755;SDS011;27435;48.480;9.258;2022-08-19T11:56:58;60.70;;;35.15;;
41755;SDS011;27435;48.480;9.258;2022-08-19T11:59:26;61.83;;;35.63;;
41755;SDS011;27435;48.480;9.258;2022-08-19T12:01:52;54.80;;;34.28;;
41755;SDS011;27435;48.480;9.258;2022-08-19T12:04:17;57.97;;;35.28;;
41755;SDS011;27435;48.480;9.258;2022-08-19T12:06:43;56.03;;;33.60;;
41755;SDS011;27435;48.480;9.258;2022-08-19T12:09:10;59.03;;;35.80;;
41755;SDS011;27435;48.480;9.258;2022-08-19T12:11:36;54.50;;;33.08;;
41755;SDS011;27435;48.480;9.258;2022-08-19T12:14:03;53.85;;;33.25;;
41755;SDS011;27435;48.480;9.258;2022-08-19T12:16:29;49.53;;;32.15;;
41755;SDS011;27435;48.480;9.258;2022-08-19T12:18:57;53.03;;;32.22;;
41755;SDS011;27435;48.480;9.258;2022-08-19T12:21:28;52.80;;;33.35;;
41755;SDS011;27435;48.480;9.258;2022-08-19T12:23:55;52.90;;;32.88;;
41755;SDS011;27435;48.480;9.258;2022-08-19T12:26:22;49.75;;;31.25;;
41755;SDS011;27435;48.480;9.258;2022-08-19T12:28:49;52.47;;;32.30;;
41755;SDS011;27435;48.480;9.258;2022-08-19T12:31:15;50.08;;;31.75;;
41755;SDS011;27435;48.480;9.258;2022-08-19T12:33:41;52.28;;;32.80;;
41755;SDS011;27435;48.480;9.258;2022-08-19T12:36:08;54.50;;;32.05;;
41755;SDS011;27435;48.480;9.258;2022-08-19T12:38:37;49.55;;;30.85;;
41755;SDS011;27435;48.480;9.258;2022-08-19T12:41:05;49.05;;;30.60;;
41755;SDS011;27435;48.480;9.258;2022-08-19T12:43:32;50.65;;;31.38;;
41755;SDS011;27435;48.480;9.258;2022-08-19T12:45:59;53.42;;;31.67;;
41755;SDS011;27435;48.480;9.258;2022-08-19T12:48:25;50.33;;;32.58;;
41755;SDS011;27435;48.480;9.258;2022-08-19T12:50:51;50.10;;;31.30;;
41755;SDS011;27435;48.480;9.258;2022-08-19T12:53:17;47.83;;;31.20;;
41755;SDS011;27435;48.480;9.258;2022-08-19T12:55:42;46.70;;;30.65;;
41755;SDS011;27435;48.480;9.258;2022-08-19T12:58:08;43.97;;;30.00;;
41755;SDS011;27435;48.480;9.258;2022-08-19T13:00:34;45.22;;;27.85;;
41755;SDS011;27435;48.480;9.258;2022-08-19T13:03:00;41.45;;;28.33;;
41755;SDS011;27435;48.480;9.258;2022-08-19T13:05:27;45.38;;;28.70;;
41755;SDS011;27435;48.480;9.258;2022-08-19T13:07:55;46.45;;;29.92;;
41755;SDS011;27435;48.480;9.258;2022-08-19T13:10:23;43.80;;;27.20;;
41755;SDS011;27435;48.480;9.258;2022-08-19T13:12:50;45.05;;;28.65;;
41755;SDS011;27435;48.480;9.258;2022-08-19T13:15:17;43.70;;;29.42;;
41755;SDS011;27435;48.480;9.258;2022-08-19T13:17:47;42.72;;;28.77;;
41755;SDS011;27435;48.480;9.258;2022-08-19T13:20:15;45.95;;;28.92;;
41755;SDS011;27435;48.480;9.258;2022-08-19T13:22:42;47.72;;;30.88;;
41755;SDS011;27435;48.480;9.258;2022-08-19T13:25:10;39.35;;;28.25;;
41755;SDS011;27435;48.480;9.258;2022-08-19T13:27:37;38.63;;;27.73;;
41755;SDS011;27435;48.480;9.258;2022-08-19T13:30:03;37.28;;;26.17;;
41755;SDS011;27435;48.480;9.258;2022-08-19T13:32:50;35.65;;;25.00;;
41755;SDS011;27435;48.480;9.258;2022-08-19T13:35:34;36.80;;;25.85;;
41755;SDS011;27435;48.480;9.258;2022-08-19T13:38:00;33.88;;;25.67;;
41755;SDS011;27435;48.480;9.258;2022-08-19T13:40:30;33.78;;;25.35;;
41755;SDS011;27435;48.480;9.258;2022-08-19T13:42:59;35.08;;;24.77;;
41755;SDS011;27435;48.480;9.258;2022-08-19T13:45:27;36.85;;;25.35;;
41755;SDS011;27435;48.480;9.258;2022-08-19T13:47:54;32.10;;;24.08;;
41755;SDS011;27435;48.480;9.258;2022-08-19T13:50:23;38.17;;;24.77;;
41755;SDS011;27435;48.480;9.258;2022-08-19T13:52:51;30.27;;;23.45;;
41755;SDS011;27435;48.480;9.258;2022-08-19T13:55:17;36.00;;;24.50;;
41755;SDS011;27435;48.480;9.258;2022-08-19T13:57:43;33.33;;;24.40;;
41755;SDS011;27435;48.480;9.258;2022-08-19T14:00:10;32.13;;;24.33;;
41755;SDS011;27435;48.480;9.258;2022-08-19T14:02:40;35.60;;;25.65;;
41755;SDS011;27435;48.480;9.258;2022-08-19T14:05:08;33.80;;;24.90;;
41755;SDS011;27435;48.480;9.258;2022-08-19T14:07:35;39.10;;;25.48;;
41755;SDS011;27435;48.480;9.258;2022-08-19T14:10:01;36.72;;;25.73;;
41755;SDS011;27435;48.480;9.258;2022-08-19T14:12:30;34.75;;;24.05;;
41755;SDS011;27435;48.480;9.258;2022-08-19T14:14:57;56.42;;;24.63;;
41755;SDS011;27435;48.480;9.258;2022-08-19T14:17:22;31.88;;;22.75;;
41755;SDS011;27435;48.480;9.258;2022-08-19T14:19:48;32.97;;;23.02;;
41755;SDS011;27435;48.480;9.258;2022-08-19T14:22:14;34.50;;;24.17;;
41755;SDS011;27435;48.480;9.258;2022-08-19T14:24:39;32.15;;;23.92;;
41755;SDS011;27435;48.480;9.258;2022-08-19T14:27:05;31.17;;;23.08;;
41755;SDS011;27435;48.480;9.258;2022-08-19T14:29:31;32.53;;;22.35;;
41755;SDS011;27435;48.480;9.258;2022-08-19T14:31:58;33.80;;;23.73;;
41755;SDS011;27435;48.480;9.258;2022-08-19T14:34:24;35.17;;;24.23;;
41755;SDS011;27435;48.480;9.258;2022-08-19T14:36:51;34.72;;;24.88;;
41755;SDS011;27435;48.480;9.258;2022-08-19T14:39:17;36.20;;;25.20;;
41755;SDS011;27435;48.480;9.258;2022-08-19T14:41:43;37.22;;;25.13;;